createdAt,value
2018-11-22T00:02:44.603Z,0.00
2018-11-22T00:12:44.575Z,0.00
2018-11-22T00:22:44.508Z,0.00
2018-11-22T00:32:47.483Z,0.00
2018-11-22T00:42:44.569Z,0.00
2018-11-22T00:52:44.640Z,0.00
2018-11-22T01:02:44.508Z,0.01
2018-11-22T01:12:44.603Z,0.00
2018-11-22T01:22:44.575Z,0.00
2018-11-22T01:32:44.559Z,0.00
2018-11-22T01:42:44.493Z,0.00
2018-11-22T01:52:44.544Z,0.00
2018-11-22T02:02:44.502Z,0.00
2018-11-22T02:12:44.622Z,0.02
2018-11-22T02:22:46.058Z,0.03
2018-11-22T02:32:44.573Z,0.04
2018-11-22T02:42:44.475Z,0.12
2018-11-22T02:52:44.508Z,0.01
2018-11-22T03:02:44.512Z,0.00
2018-11-22T03:12:44.490Z,0.00
2018-11-22T03:22:44.583Z,0.00
2018-11-22T03:32:44.517Z,0.00
2018-11-22T03:42:44.485Z,0.00
2018-11-22T03:52:44.481Z,0.00
2018-11-22T04:02:44.580Z,0.00
2018-11-22T04:12:45.064Z,0.00
2018-11-22T04:22:44.447Z,0.00
2018-11-22T04:32:44.453Z,0.00
2018-11-22T04:42:44.461Z,0.00
2018-11-22T04:52:44.442Z,0.00
2018-11-22T05:02:44.512Z,0.00
2018-11-22T05:12:44.464Z,0.00
2018-11-22T05:22:44.485Z,0.00
2018-11-22T05:32:44.506Z,0.00
2018-11-22T05:42:44.472Z,0.00
2018-11-22T05:52:44.493Z,0.00
2018-11-22T06:02:44.397Z,0.00
2018-11-22T06:12:44.464Z,0.00
2018-11-22T06:22:44.391Z,0.00
2018-11-22T06:32:44.477Z,0.01
2018-11-22T06:42:44.306Z,0.01
2018-11-22T06:52:44.380Z,0.00
2018-11-22T07:02:44.456Z,0.00
2018-11-22T07:12:44.704Z,0.01
2018-11-22T07:22:44.482Z,0.01
2018-11-22T07:32:44.471Z,0.04
2018-11-22T07:42:47.130Z,0.00
2018-11-22T07:52:44.552Z,0.00
2018-11-22T08:02:44.452Z,0.02
2018-11-22T08:12:44.655Z,0.01
2018-11-22T08:22:44.386Z,0.01
2018-11-22T08:32:44.522Z,0.07
2018-11-22T08:42:44.453Z,0.03
2018-11-22T08:52:44.566Z,0.15
2018-11-22T09:02:45.415Z,0.08
2018-11-22T09:12:44.432Z,0.71
2018-11-22T09:22:44.483Z,0.09
2018-11-22T09:32:45.158Z,0.28
2018-11-22T09:42:44.425Z,0.74
2018-11-22T09:52:44.453Z,0.76
2018-11-22T10:02:44.437Z,0.54
2018-11-22T10:22:51.038Z,0.43
2018-11-22T10:32:51.218Z,0.21
2018-11-22T10:42:50.546Z,0.27
2018-11-22T10:52:50.598Z,0.37
2018-11-22T11:02:50.630Z,0.76
2018-11-22T11:12:50.510Z,0.72
2018-11-22T11:22:50.719Z,0.99
2018-11-22T11:32:50.512Z,1.27
2018-11-22T11:42:50.356Z,1.50
2018-11-22T11:52:50.554Z,1.64
2018-11-22T12:02:50.516Z,1.09
2018-11-22T12:12:50.571Z,0.80
2018-11-22T12:22:50.830Z,0.76
2018-11-22T12:32:50.664Z,1.70
2018-11-22T12:42:50.633Z,0.57
2018-11-22T12:52:50.544Z,0.90
2018-11-22T13:02:50.583Z,1.04
2018-11-22T13:12:50.506Z,1.22
2018-11-22T13:22:51.637Z,0.80
2018-11-22T13:32:51.444Z,0.77
2018-11-22T13:42:51.603Z,1.21
2018-11-22T13:52:51.574Z,1.17
2018-11-22T14:02:50.673Z,0.68
2018-11-22T14:12:51.171Z,0.95
2018-11-22T14:22:53.232Z,0.85
2018-11-22T14:32:50.528Z,1.04
2018-11-22T14:42:51.242Z,0.51
2018-11-22T14:52:50.586Z,0.59
2018-11-22T15:02:51.294Z,0.14
2018-11-22T15:12:50.543Z,0.14
2018-11-22T15:22:50.576Z,0.04
2018-11-22T15:32:50.637Z,0.00
2018-11-22T15:42:50.550Z,0.01
2018-11-22T15:52:50.702Z,0.00
2018-11-22T16:02:50.588Z,0.01
2018-11-22T16:12:50.696Z,0.00
2018-11-22T16:22:50.527Z,0.00
2018-11-22T16:32:51.384Z,0.00
2018-11-22T16:42:50.560Z,0.06
2018-11-22T16:52:50.559Z,0.14
2018-11-22T17:02:50.502Z,0.04
2018-11-22T17:12:51.507Z,0.00
2018-11-22T17:22:50.496Z,0.02
2018-11-22T17:32:50.526Z,0.01
2018-11-22T17:42:50.539Z,0.00
2018-11-22T17:52:50.523Z,0.16
2018-11-22T18:02:50.643Z,0.01
2018-11-22T18:12:50.431Z,0.19
2018-11-22T18:22:50.545Z,0.02
2018-11-22T18:32:50.553Z,0.07
2018-11-22T18:42:50.463Z,0.04
2018-11-22T18:52:50.487Z,0.25
2018-11-22T19:02:50.541Z,0.36
2018-11-22T19:12:50.462Z,0.48
2018-11-22T19:22:51.071Z,0.18
2018-11-22T19:32:50.369Z,0.16
2018-11-22T19:42:50.558Z,0.55
2018-11-22T19:52:50.470Z,0.12
2018-11-22T20:02:50.487Z,0.20
2018-11-22T20:12:50.494Z,0.06
2018-11-22T20:22:50.460Z,0.08
2018-11-22T20:32:50.496Z,0.06
2018-11-22T20:42:50.515Z,0.00
2018-11-22T20:52:50.491Z,0.00
2018-11-22T21:02:50.508Z,0.02
2018-11-22T21:12:51.416Z,0.00
2018-11-22T21:22:50.439Z,0.00
2018-11-22T21:32:50.522Z,0.00
2018-11-22T21:42:51.471Z,0.00
2018-11-22T21:52:50.477Z,0.00
2018-11-22T22:02:52.809Z,0.00
2018-11-22T22:12:50.559Z,0.00
2018-11-22T22:22:50.519Z,0.00
2018-11-22T22:32:51.665Z,0.00
2018-11-22T22:42:50.492Z,0.00
2018-11-22T22:52:50.451Z,0.00
2018-11-22T23:02:50.404Z,0.00
2018-11-22T23:12:50.491Z,0.00
2018-11-22T23:22:50.383Z,0.00
2018-11-22T23:32:50.462Z,0.00
2018-11-22T23:42:50.504Z,0.01
2018-11-22T23:52:50.502Z,0.00
